Time;durP1;ratioP1;P1;durP2;ratioP2;P2;SDS_P1;SDS_P2;PMS_P1;PMS_P2;Temp;Humidity;BMP_temperature;BMP_pressure;BME280_temperature;BME280_humidity;BME280_pressure;Samples;Min_cycle;Max_cycle;Signal;HPM_P1;HPM_P2
2021/10/13 00:00:12;;;;;;;15.32;4.47;;;;;;;;;;5052287;28;20466;-76
2021/10/13 00:02:37;;;;;;;19.25;4.38;;;;;;;;;;5053459;28;20044;-77
2021/10/13 00:05:03;;;;;;;10.48;3.53;;;;;;;;;;5053067;28;20116;-76
2021/10/13 00:07:29;;;;;;;9.93;2.83;;;;;;;;;;5053200;28;20037;-76
2021/10/13 00:09:55;;;;;;;13.63;3.50;;;;;;;;;;5053013;28;20116;-76
2021/10/13 00:12:21;;;;;;;14.65;3.72;;;;;;;;;;5051782;28;20140;-76
2021/10/13 00:14:46;;;;;;;12.70;3.67;;;;;;;;;;5053082;28;20501;-76
2021/10/13 00:17:11;;;;;;;9.70;3.10;;;;;;;;;;5056983;28;20029;-76
2021/10/13 00:19:36;;;;;;;12.13;4.18;;;;;;;;;;5056939;28;20458;-77
2021/10/13 00:22:02;;;;;;;11.88;3.72;;;;;;;;;;5056626;28;20100;-76
2021/10/13 00:24:28;;;;;;;14.52;4.65;;;;;;;;;;5056664;28;20032;-76
2021/10/13 00:26:53;;;;;;;17.92;5.32;;;;;;;;;;5056710;28;20045;-77
2021/10/13 00:29:18;;;;;;;9.45;3.83;;;;;;;;;;5056847;28;20052;-76
2021/10/13 00:31:43;;;;;;;20.33;4.28;;;;;;;;;;5056957;28;20044;-76
2021/10/13 00:34:09;;;;;;;21.05;4.40;;;;;;;;;;5057048;28;20032;-76
2021/10/13 00:36:34;;;;;;;14.60;4.10;;;;;;;;;;5056198;28;20515;-77
2021/10/13 00:38:59;;;;;;;12.52;3.95;;;;;;;;;;5056300;28;20039;-76
2021/10/13 00:41:24;;;;;;;16.00;4.40;;;;;;;;;;5056885;28;20060;-76
2021/10/13 00:43:50;;;;;;;9.73;3.45;;;;;;;;;;5056516;28;20112;-76
2021/10/13 00:46:15;;;;;;;13.25;4.05;;;;;;;;;;5056427;28;20076;-76
2021/10/13 00:48:40;;;;;;;12.73;4.13;;;;;;;;;;5056364;28;20523;-76
2021/10/13 00:51:06;;;;;;;13.57;4.03;;;;;;;;;;5056406;28;20056;-76
2021/10/13 00:53:31;;;;;;;12.23;4.13;;;;;;;;;;5056438;28;20036;-76
2021/10/13 00:55:56;;;;;;;11.85;3.88;;;;;;;;;;5056246;28;20386;-76
2021/10/13 00:58:22;;;;;;;15.45;4.10;;;;;;;;;;5056483;28;20025;-76
2021/10/13 01:00:52;;;;;;;13.18;4.30;;;;;;;;;;5055901;28;20041;-76
2021/10/13 01:03:36;;;;;;;11.35;4.78;;;;;;;;;;5056299;28;20100;-76
2021/10/13 01:06:01;;;;;;;9.10;3.38;;;;;;;;;;5055996;28;20033;-76
2021/10/13 01:08:26;;;;;;;12.00;4.13;;;;;;;;;;5056120;28;20428;-76
2021/10/13 01:10:59;;;;;;;10.93;4.53;;;;;;;;;;5055760;28;20060;-76
2021/10/13 01:13:31;;;;;;;12.27;3.67;;;;;;;;;;5056077;28;20083;-76
2021/10/13 01:16:06;;;;;;;10.77;4.10;;;;;;;;;;5055859;28;20079;-76
2021/10/13 01:18:38;;;;;;;15.13;5.25;;;;;;;;;;5055926;28;20374;-76
2021/10/13 01:21:19;;;;;;;12.35;3.88;;;;;;;;;;5045488;28;20050;-76
2021/10/13 01:24:03;;;;;;;11.93;3.72;;;;;;;;;;5044747;28;20056;-76
2021/10/13 01:26:48;;;;;;;12.30;3.95;;;;;;;;;;5047887;28;20037;-76
2021/10/13 01:29:15;;;;;;;16.45;4.05;;;;;;;;;;5039209;28;20123;-76
2021/10/13 01:31:42;;;;;;;11.05;3.65;;;;;;;;;;5055641;28;20029;-76
2021/10/13 01:34:14;;;;;;;9.40;3.90;;;;;;;;;;5055315;28;20416;-76
2021/10/13 01:36:43;;;;;;;9.52;4.43;;;;;;;;;;5055720;28;20053;-76
2021/10/13 01:39:09;;;;;;;14.40;3.83;;;;;;;;;;5055530;28;20033;-76
2021/10/13 01:41:36;;;;;;;13.45;3.70;;;;;;;;;;5055543;28;20021;-76
2021/10/13 01:44:02;;;;;;;7.22;3.28;;;;;;;;;;5055373;28;20017;-76
2021/10/13 01:46:27;;;;;;;14.88;3.78;;;;;;;;;;5055520;28;20037;-76
2021/10/13 01:48:53;;;;;;;10.80;3.60;;;;;;;;;;5055321;28;20460;-76
2021/10/13 01:51:19;;;;;;;14.27;4.15;;;;;;;;;;5047840;28;20126;-76
2021/10/13 01:53:46;;;;;;;11.88;3.65;;;;;;;;;;5035200;28;20119;-76
2021/10/13 01:56:13;;;;;;;10.35;3.30;;;;;;;;;;5035420;28;20021;-76
2021/10/13 01:58:41;;;;;;;10.25;3.60;;;;;;;;;;5035211;28;20358;-77
2021/10/13 02:01:09;;;;;;;12.70;4.50;;;;;;;;;;5039041;28;20049;-76
2021/10/13 02:03:35;;;;;;;9.45;4.03;;;;;;;;;;5046616;28;20057;-76
2021/10/13 02:06:02;;;;;;;8.18;3.05;;;;;;;;;;5036350;28;20160;-76
2021/10/13 02:08:28;;;;;;;11.45;4.95;;;;;;;;;;5035098;28;20029;-76
2021/10/13 02:10:55;;;;;;;8.45;3.70;;;;;;;;;;5042372;28;20013;-76
2021/10/13 02:13:21;;;;;;;15.00;4.75;;;;;;;;;;5054867;28;20029;-76
2021/10/13 02:15:48;;;;;;;25.20;4.03;;;;;;;;;;5054503;28;20037;-76
2021/10/13 02:18:14;;;;;;;19.70;4.60;;;;;;;;;;5054771;28;20052;-76
2021/10/13 02:20:41;;;;;;;16.58;3.63;;;;;;;;;;5054849;28;20025;-77
2021/10/13 02:23:07;;;;;;;15.18;3.90;;;;;;;;;;5037387;28;20065;-77
2021/10/13 02:25:35;;;;;;;11.77;4.10;;;;;;;;;;5034752;28;20056;-76
2021/10/13 02:28:12;;;;;;;10.57;3.80;;;;;;;;;;5034311;28;20367;-77
2021/10/13 02:30:38;;;;;;;7.00;3.25;;;;;;;;;;5034632;28;20029;-76
2021/10/13 02:33:04;;;;;;;8.82;2.97;;;;;;;;;;5034590;28;20025;-76
2021/10/13 02:35:29;;;;;;;11.60;4.38;;;;;;;;;;5042143;28;20053;-77
2021/10/13 02:37:54;;;;;;;10.38;3.53;;;;;;;;;;5052963;28;20141;-77
2021/10/13 02:40:20;;;;;;;14.25;4.15;;;;;;;;;;5053606;28;20025;-76
2021/10/13 02:42:45;;;;;;;13.27;4.32;;;;;;;;;;5052981;28;20410;-77
2021/10/13 02:45:10;;;;;;;9.43;3.88;;;;;;;;;;5052910;28;20151;-76
2021/10/13 02:47:39;;;;;;;14.75;4.22;;;;;;;;;;5054166;28;20134;-76
2021/10/13 02:50:10;;;;;;;12.07;4.03;;;;;;;;;;5054411;28;20033;-76
2021/10/13 02:52:54;;;;;;;11.52;4.00;;;;;;;;;;5054240;28;20029;-76
2021/10/13 02:55:24;;;;;;;18.98;3.80;;;;;;;;;;5054097;28;20021;-76
2021/10/13 02:57:58;;;;;;;11.52;3.75;;;;;;;;;;5054029;28;20033;-76
2021/10/13 03:00:24;;;;;;;11.65;3.78;;;;;;;;;;5053109;28;20559;-76
2021/10/13 03:02:55;;;;;;;14.32;3.55;;;;;;;;;;5039706;28;20071;-76
2021/10/13 03:05:21;;;;;;;10.02;3.45;;;;;;;;;;5039871;28;20090;-76
2021/10/13 03:07:47;;;;;;;10.32;3.50;;;;;;;;;;5033445;28;20458;-76
2021/10/13 03:10:13;;;;;;;17.48;3.90;;;;;;;;;;5047043;28;20029;-76
2021/10/13 03:12:41;;;;;;;9.30;3.08;;;;;;;;;;5053769;28;20029;-77
2021/10/13 03:15:08;;;;;;;9.93;3.75;;;;;;;;;;5053745;28;20108;-76
2021/10/13 03:17:35;;;;;;;8.52;2.97;;;;;;;;;;5053819;28;20373;-76
2021/10/13 03:20:01;;;;;;;9.50;3.67;;;;;;;;;;5053678;28;20047;-76
2021/10/13 03:22:26;;;;;;;11.98;4.45;;;;;;;;;;5053383;28;20103;-76
2021/10/13 03:24:52;;;;;;;11.43;3.53;;;;;;;;;;5053169;28;20108;-76
2021/10/13 03:27:17;;;;;;;9.90;4.07;;;;;;;;;;5053533;28;20081;-77
2021/10/13 03:29:42;;;;;;;16.90;3.90;;;;;;;;;;5044972;28;20017;-77
2021/10/13 03:32:08;;;;;;;9.07;3.22;;;;;;;;;;5065671;28;20476;-77
2021/10/13 03:34:34;;;;;;;12.07;2.95;;;;;;;;;;5033546;28;20538;-77
2021/10/13 03:36:59;;;;;;;13.90;3.55;;;;;;;;;;5033386;28;20029;-77
2021/10/13 03:39:24;;;;;;;11.48;3.40;;;;;;;;;;5033313;28;20079;-76
2021/10/13 03:41:50;;;;;;;12.07;3.45;;;;;;;;;;5033472;28;20048;-76
2021/10/13 03:44:15;;;;;;;11.07;3.60;;;;;;;;;;5033496;28;20521;-76
2021/10/13 03:46:40;;;;;;;10.55;3.90;;;;;;;;;;5033372;28;20138;-77
2021/10/13 03:49:06;;;;;;;13.70;3.65;;;;;;;;;;5033439;28;20033;-76
2021/10/13 03:51:31;;;;;;;11.48;3.70;;;;;;;;;;5038998;28;20044;-76
2021/10/13 03:53:57;;;;;;;10.23;3.45;;;;;;;;;;5039991;28;20025;-77
2021/10/13 03:56:22;;;;;;;9.38;3.45;;;;;;;;;;5040053;28;20037;-76
2021/10/13 03:58:47;;;;;;;11.75;3.85;;;;;;;;;;5039856;28;20025;-77
2021/10/13 04:01:13;;;;;;;9.10;3.70;;;;;;;;;;5040012;28;20053;-76
2021/10/13 04:03:39;;;;;;;15.35;3.92;;;;;;;;;;5039958;28;20080;-76
2021/10/13 04:06:04;;;;;;;13.65;3.75;;;;;;;;;;5042532;28;20468;-77
2021/10/13 04:08:29;;;;;;;11.40;3.17;;;;;;;;;;5054377;28;20032;-77
2021/10/13 04:10:55;;;;;;;14.63;3.65;;;;;;;;;;5059816;28;20037;-76
2021/10/13 04:13:21;;;;;;;12.02;3.03;;;;;;;;;;5059432;28;20027;-77
2021/10/13 04:15:46;;;;;;;11.77;3.47;;;;;;;;;;5041823;28;20433;-77
2021/10/13 04:18:11;;;;;;;9.02;3.33;;;;;;;;;;5039731;28;20037;-77
2021/10/13 04:20:37;;;;;;;8.18;3.38;;;;;;;;;;5040042;28;20025;-77
2021/10/13 04:23:02;;;;;;;14.77;3.47;;;;;;;;;;5038450;28;20070;-77
2021/10/13 04:25:28;;;;;;;14.48;3.78;;;;;;;;;;5053515;28;20112;-76
2021/10/13 04:27:53;;;;;;;9.10;3.95;;;;;;;;;;5059216;28;20037;-77
2021/10/13 04:30:18;;;;;;;6.70;3.13;;;;;;;;;;5059679;28;20039;-76
2021/10/13 04:32:44;;;;;;;8.27;3.83;;;;;;;;;;5059910;28;20054;-77
2021/10/13 04:35:09;;;;;;;9.90;3.97;;;;;;;;;;5059196;28;20056;-77
2021/10/13 04:37:35;;;;;;;9.50;2.85;;;;;;;;;;5059699;28;20021;-77
2021/10/13 04:40:00;;;;;;;9.85;3.60;;;;;;;;;;5059467;28;20572;-78
2021/10/13 04:42:25;;;;;;;8.27;3.20;;;;;;;;;;5059614;28;20021;-77
2021/10/13 04:44:50;;;;;;;7.30;2.90;;;;;;;;;;5059548;28;20078;-77
2021/10/13 04:47:16;;;;;;;12.77;3.20;;;;;;;;;;5059459;28;20044;-76
2021/10/13 04:49:41;;;;;;;13.07;3.38;;;;;;;;;;5059540;28;20108;-77
2021/10/13 04:52:06;;;;;;;9.55;3.50;;;;;;;;;;5059145;28;20060;-77
2021/10/13 04:54:32;;;;;;;13.98;3.67;;;;;;;;;;5059399;28;20029;-78
2021/10/13 04:56:57;;;;;;;9.93;3.42;;;;;;;;;;5059445;28;20032;-77
2021/10/13 04:59:22;;;;;;;8.10;2.90;;;;;;;;;;5059099;28;20076;-77
2021/10/13 05:01:47;;;;;;;8.45;3.15;;;;;;;;;;5054632;28;20040;-77
2021/10/13 05:04:13;;;;;;;10.48;3.33;;;;;;;;;;5052616;28;20017;-77
2021/10/13 05:06:38;;;;;;;8.27;3.67;;;;;;;;;;5036265;28;20033;-76
2021/10/13 05:09:03;;;;;;;6.60;2.95;;;;;;;;;;5036146;28;20029;-77
2021/10/13 05:11:29;;;;;;;7.05;3.50;;;;;;;;;;5051376;28;20027;-77
2021/10/13 05:13:54;;;;;;;10.30;3.50;;;;;;;;;;5055791;28;20476;-77
2021/10/13 05:16:19;;;;;;;11.50;3.40;;;;;;;;;;5056081;28;20044;-77
2021/10/13 05:18:44;;;;;;;12.13;3.50;;;;;;;;;;5055996;28;20021;-77
2021/10/13 05:21:10;;;;;;;5.43;2.78;;;;;;;;;;5056243;28;20028;-77
2021/10/13 05:23:35;;;;;;;9.18;3.42;;;;;;;;;;5055863;28;20107;-77
2021/10/13 05:26:00;;;;;;;10.13;3.55;;;;;;;;;;5055679;28;20461;-79
2021/10/13 05:28:25;;;;;;;8.75;3.47;;;;;;;;;;5055841;28;20032;-77
2021/10/13 05:30:51;;;;;;;7.43;3.55;;;;;;;;;;5055639;28;20024;-77
2021/10/13 05:33:16;;;;;;;7.18;3.45;;;;;;;;;;5055658;28;20105;-77
2021/10/13 05:35:41;;;;;;;9.30;3.55;;;;;;;;;;5055690;28;20044;-77
2021/10/13 05:38:06;;;;;;;11.63;3.50;;;;;;;;;;5055501;28;20405;-77
2021/10/13 05:40:32;;;;;;;7.32;3.38;;;;;;;;;;5055645;28;20028;-77
2021/10/13 05:42:57;;;;;;;11.38;3.95;;;;;;;;;;5055382;28;20024;-76
2021/10/13 05:45:22;;;;;;;9.20;3.38;;;;;;;;;;5054200;28;20029;-77
2021/10/13 05:47:48;;;;;;;10.73;3.67;;;;;;;;;;5055217;28;20466;-77
2021/10/13 05:50:13;;;;;;;11.32;2.85;;;;;;;;;;5055480;28;20082;-76
2021/10/13 05:52:38;;;;;;;12.07;3.15;;;;;;;;;;5046424;28;20033;-77
2021/10/13 05:55:04;;;;;;;9.10;2.80;;;;;;;;;;5046438;28;20078;-77
2021/10/13 05:57:29;;;;;;;13.65;3.70;;;;;;;;;;5048019;28;20083;-77
2021/10/13 06:00:00;;;;;;;6.40;3.40;;;;;;;;;;5039518;28;20033;-76
2021/10/13 06:02:26;;;;;;;7.00;2.85;;;;;;;;;;5055075;28;20019;-77
2021/10/13 06:04:51;;;;;;;7.50;3.42;;;;;;;;;;5050071;28;20022;-76
2021/10/13 06:07:17;;;;;;;10.13;2.85;;;;;;;;;;5035061;28;20041;-76
2021/10/13 06:09:42;;;;;;;8.05;3.03;;;;;;;;;;5034662;28;20026;-77
2021/10/13 06:12:07;;;;;;;8.98;2.97;;;;;;;;;;5035067;28;20017;-76
2021/10/13 06:14:32;;;;;;;15.32;3.50;;;;;;;;;;5034816;28;20033;-76
2021/10/13 06:16:58;;;;;;;9.70;3.72;;;;;;;;;;5034877;28;20451;-77
2021/10/13 06:19:23;;;;;;;17.40;4.88;;;;;;;;;;5034588;28;20017;-76
2021/10/13 06:21:48;;;;;;;13.18;3.90;;;;;;;;;;5034869;28;20130;-76
2021/10/13 06:24:14;;;;;;;8.43;3.75;;;;;;;;;;5034704;28;20041;-76
2021/10/13 06:26:39;;;;;;;12.30;4.65;;;;;;;;;;5034648;28;20079;-77
2021/10/13 06:29:05;;;;;;;11.23;3.42;;;;;;;;;;5050330;28;20069;-77
2021/10/13 06:31:30;;;;;;;7.85;4.18;;;;;;;;;;5054665;28;20373;-76
2021/10/13 06:33:55;;;;;;;11.10;3.45;;;;;;;;;;5054476;28;20017;-77
2021/10/13 06:36:21;;;;;;;10.38;3.40;;;;;;;;;;5054536;28;20045;-76
2021/10/13 06:38:47;;;;;;;9.73;3.38;;;;;;;;;;5054345;28;20013;-78
2021/10/13 06:41:12;;;;;;;9.80;3.28;;;;;;;;;;5054522;28;20079;-76
2021/10/13 06:43:37;;;;;;;9.80;3.55;;;;;;;;;;5054199;28;20033;-76
2021/10/13 06:46:03;;;;;;;11.80;3.20;;;;;;;;;;5052052;28;20037;-76
2021/10/13 06:48:28;;;;;;;10.27;3.95;;;;;;;;;;5034490;28;20057;-76
2021/10/13 06:50:54;;;;;;;9.15;3.80;;;;;;;;;;5052630;28;20033;-76
2021/10/13 06:53:19;;;;;;;15.48;4.38;;;;;;;;;;5048102;28;20505;-76
2021/10/13 06:55:45;;;;;;;10.18;3.45;;;;;;;;;;5045108;28;20013;-77
2021/10/13 06:58:11;;;;;;;9.70;4.20;;;;;;;;;;5054067;28;20115;-76
2021/10/13 07:00:36;;;;;;;12.85;4.13;;;;;;;;;;5054548;28;20118;-75
2021/10/13 07:03:02;;;;;;;10.18;4.05;;;;;;;;;;5053968;28;20028;-76
2021/10/13 07:05:27;;;;;;;13.07;3.90;;;;;;;;;;5053700;28;20037;-75
2021/10/13 07:07:52;;;;;;;10.95;4.78;;;;;;;;;;5053515;28;20428;-76
2021/10/13 07:10:18;;;;;;;10.00;4.70;;;;;;;;;;5053906;28;20028;-76
2021/10/13 07:12:44;;;;;;;11.98;4.82;;;;;;;;;;5053897;28;20032;-76
2021/10/13 07:15:09;;;;;;;8.18;4.40;;;;;;;;;;5053659;28;20056;-77
2021/10/13 07:17:34;;;;;;;14.40;4.72;;;;;;;;;;5053732;28;20020;-76
2021/10/13 07:20:02;;;;;;;13.00;3.90;;;;;;;;;;5053708;28;20477;-77
2021/10/13 07:22:28;;;;;;;9.98;3.75;;;;;;;;;;5053517;28;20450;-76
2021/10/13 07:24:53;;;;;;;11.88;3.72;;;;;;;;;;5045070;28;20017;-76
2021/10/13 07:27:19;;;;;;;8.52;3.20;;;;;;;;;;5033475;28;20048;-76
2021/10/13 07:29:45;;;;;;;10.10;3.53;;;;;;;;;;5033610;28;20470;-76
2021/10/13 07:32:11;;;;;;;17.52;3.55;;;;;;;;;;5033619;28;20025;-76
2021/10/13 07:34:36;;;;;;;9.77;3.28;;;;;;;;;;5033645;28;20037;-76
2021/10/13 07:37:02;;;;;;;8.63;3.28;;;;;;;;;;5053379;28;20017;-76
2021/10/13 07:39:28;;;;;;;7.22;3.08;;;;;;;;;;5053470;28;20026;-76
2021/10/13 07:41:53;;;;;;;6.00;3.10;;;;;;;;;;5053311;28;20037;-76
2021/10/13 07:44:18;;;;;;;5.53;3.10;;;;;;;;;;5053429;28;20381;-77
2021/10/13 07:46:43;;;;;;;11.20;3.08;;;;;;;;;;5053332;28;20469;-76
2021/10/13 07:49:09;;;;;;;9.90;3.40;;;;;;;;;;5053328;28;20036;-77
2021/10/13 07:51:34;;;;;;;4.10;2.65;;;;;;;;;;5053326;28;20029;-77
2021/10/13 07:53:59;;;;;;;8.82;2.05;;;;;;;;;;5053563;28;20465;-77
2021/10/13 07:56:24;;;;;;;5.53;1.75;;;;;;;;;;5053255;28;20033;-77
2021/10/13 07:58:50;;;;;;;5.97;2.03;;;;;;;;;;5053153;28;20021;-77
2021/10/13 08:01:15;;;;;;;3.08;2.05;;;;;;;;;;5053271;28;20028;-77
2021/10/13 08:03:40;;;;;;;6.03;2.08;;;;;;;;;;5052090;28;20489;-78
2021/10/13 08:06:06;;;;;;;4.70;1.90;;;;;;;;;;5040407;28;20086;-77
2021/10/13 08:08:31;;;;;;;2.90;1.50;;;;;;;;;;5053131;28;20017;-77
2021/10/13 08:10:56;;;;;;;4.63;1.67;;;;;;;;;;5053058;28;20025;-77
2021/10/13 08:13:22;;;;;;;8.88;1.83;;;;;;;;;;5048126;28;20036;-77
2021/10/13 08:15:47;;;;;;;3.85;1.55;;;;;;;;;;5048087;28;20017;-78
2021/10/13 08:18:12;;;;;;;3.78;1.70;;;;;;;;;;5047895;28;20036;-77
2021/10/13 08:20:38;;;;;;;6.43;1.38;;;;;;;;;;5049653;28;20023;-77
2021/10/13 08:23:03;;;;;;;5.35;1.63;;;;;;;;;;5048790;28;20036;-78
2021/10/13 08:25:28;;;;;;;4.03;1.70;;;;;;;;;;5029275;28;20120;-77
2021/10/13 08:27:53;;;;;;;6.50;1.60;;;;;;;;;;5030021;28;20037;-78
2021/10/13 08:30:19;;;;;;;5.85;1.80;;;;;;;;;;5036940;28;20362;-76
2021/10/13 08:32:44;;;;;;;12.45;1.65;;;;;;;;;;5049582;28;20079;-77
2021/10/13 08:35:09;;;;;;;4.25;1.58;;;;;;;;;;5047629;28;20056;-78
2021/10/13 08:37:35;;;;;;;6.32;1.95;;;;;;;;;;5050338;28;20017;-78
2021/10/13 08:40:00;;;;;;;5.07;1.80;;;;;;;;;;5052903;28;20095;-78
2021/10/13 08:42:26;;;;;;;4.93;1.58;;;;;;;;;;5052041;28;20079;-77
2021/10/13 08:44:52;;;;;;;5.63;2.15;;;;;;;;;;5052405;28;20104;-77
2021/10/13 08:47:17;;;;;;;6.03;2.10;;;;;;;;;;5052435;28;20394;-77
2021/10/13 08:49:43;;;;;;;3.17;2.15;;;;;;;;;;5052449;28;20438;-76
2021/10/13 08:52:09;;;;;;;4.13;1.52;;;;;;;;;;5052763;28;20089;-78
2021/10/13 08:54:34;;;;;;;4.35;1.80;;;;;;;;;;5052861;28;20531;-77
2021/10/13 08:56:59;;;;;;;3.55;1.50;;;;;;;;;;5052453;28;20032;-77
2021/10/13 08:59:37;;;;;;;5.50;1.65;;;;;;;;;;5052280;28;20017;-77
2021/10/13 09:02:02;;;;;;;3.50;1.42;;;;;;;;;;5052708;28;20033;-76
2021/10/13 09:04:28;;;;;;;5.72;1.70;;;;;;;;;;5052292;28;20075;-77
2021/10/13 09:07:01;;;;;;;4.05;1.77;;;;;;;;;;5052039;28;20082;-77
2021/10/13 09:09:26;;;;;;;7.05;2.88;;;;;;;;;;5052076;28;20501;-78
2021/10/13 09:11:51;;;;;;;4.60;2.20;;;;;;;;;;5052840;28;20096;-78
2021/10/13 09:14:20;;;;;;;5.15;1.83;;;;;;;;;;5053251;28;20029;-78
2021/10/13 09:16:51;;;;;;;6.47;2.17;;;;;;;;;;5053179;28;20566;-77
2021/10/13 09:19:16;;;;;;;8.73;3.53;;;;;;;;;;5052931;28;20409;-77
2021/10/13 09:21:48;;;;;;;8.75;3.88;;;;;;;;;;5052805;28;20378;-77
2021/10/13 09:24:14;;;;;;;9.95;4.53;;;;;;;;;;5052337;28;20036;-78
2021/10/13 09:26:39;;;;;;;8.40;3.40;;;;;;;;;;5051792;28;20473;-77
2021/10/13 09:29:06;;;;;;;7.47;3.70;;;;;;;;;;5048215;28;20395;-77
2021/10/13 09:31:31;;;;;;;15.00;4.35;;;;;;;;;;5051731;28;20071;-78
2021/10/13 09:34:01;;;;;;;10.32;4.57;;;;;;;;;;5052028;28;20025;-77
2021/10/13 09:36:32;;;;;;;9.77;4.55;;;;;;;;;;5051561;28;20083;-79
2021/10/13 09:39:02;;;;;;;9.55;4.90;;;;;;;;;;5051943;28;20025;-78
2021/10/13 09:41:29;;;;;;;10.18;5.72;;;;;;;;;;5051393;28;20128;-77
2021/10/13 09:43:54;;;;;;;9.32;4.80;;;;;;;;;;5051099;28;20067;-78
2021/10/13 09:46:20;;;;;;;12.32;5.28;;;;;;;;;;5050951;28;20043;-77
2021/10/13 09:48:56;;;;;;;7.65;3.30;;;;;;;;;;5050130;28;20420;-77
2021/10/13 09:51:22;;;;;;;8.50;2.88;;;;;;;;;;5051140;28;20104;-77
2021/10/13 09:53:49;;;;;;;6.82;3.38;;;;;;;;;;5051061;28;20060;-79
2021/10/13 09:56:30;;;;;;;5.80;2.95;;;;;;;;;;5050796;28;20044;-78
2021/10/13 09:59:08;;;;;;;5.95;3.40;;;;;;;;;;5050879;28;20029;-78
2021/10/13 10:01:34;;;;;;;7.70;2.65;;;;;;;;;;5051535;28;20414;-78
2021/10/13 10:03:59;;;;;;;7.00;2.55;;;;;;;;;;5050657;28;20028;-78
2021/10/13 10:06:27;;;;;;;7.40;2.72;;;;;;;;;;5049974;28;20492;-77
2021/10/13 10:09:02;;;;;;;5.10;2.42;;;;;;;;;;5049292;28;20052;-78
2021/10/13 10:11:29;;;;;;;6.00;2.63;;;;;;;;;;5051008;28;20021;-77
2021/10/13 10:13:54;;;;;;;5.88;2.88;;;;;;;;;;5050436;28;20033;-78
2021/10/13 10:16:38;;;;;;;6.22;2.85;;;;;;;;;;5051510;28;20025;-78
2021/10/13 10:19:22;;;;;;;4.68;2.60;;;;;;;;;;5050677;28;20021;-80
2021/10/13 10:21:52;;;;;;;8.38;3.35;;;;;;;;;;5051273;28;20033;-78
2021/10/13 10:24:28;;;;;;;4.75;2.08;;;;;;;;;;5050637;28;20025;-79
2021/10/13 10:27:12;;;;;;;7.43;2.40;;;;;;;;;;5049987;28;20362;-78
2021/10/13 10:29:37;;;;;;;6.68;2.10;;;;;;;;;;5049736;28;20488;-79
2021/10/13 10:32:12;;;;;;;3.67;1.02;;;;;;;;;;5050487;28;20120;-78
2021/10/13 10:34:38;;;;;;;5.38;1.60;;;;;;;;;;5049957;28;20049;-78
2021/10/13 10:37:03;;;;;;;3.03;1.20;;;;;;;;;;5050030;28;20524;-78
2021/10/13 10:39:48;;;;;;;11.65;3.83;;;;;;;;;;5050957;28;20025;-78
2021/10/13 10:42:33;;;;;;;2.88;1.20;;;;;;;;;;5050593;28;20076;-79
2021/10/13 10:45:08;;;;;;;2.60;1.05;;;;;;;;;;5050227;28;20029;-78
2021/10/13 10:47:47;;;;;;;1.63;0.75;;;;;;;;;;5051211;28;20048;-79
2021/10/13 10:50:12;;;;;;;1.77;0.75;;;;;;;;;;5046575;28;20039;-79
2021/10/13 10:52:57;;;;;;;2.33;0.77;;;;;;;;;;5050669;28;20033;-78
2021/10/13 10:55:32;;;;;;;1.30;0.80;;;;;;;;;;5049632;28;20061;-80
2021/10/13 10:57:57;;;;;;;;;;;;;;;;;;5050141;28;20253;-78
2021/10/13 11:00:23;;;;;;;2.10;0.70;;;;;;;;;;5048398;28;19904;-79
2021/10/13 11:02:48;;;;;;;0.50;0.40;;;;;;;;;;5029267;28;20034;-79
2021/10/13 11:05:14;;;;;;;1.20;0.52;;;;;;;;;;5030021;28;20105;-78
2021/10/13 11:07:40;;;;;;;1.02;0.43;;;;;;;;;;5029628;28;20033;-79
2021/10/13 11:10:07;;;;;;;0.70;0.38;;;;;;;;;;5029842;28;20413;-79
2021/10/13 11:12:46;;;;;;;2.10;0.68;;;;;;;;;;5029964;28;20048;-79
2021/10/13 11:15:11;;;;;;;1.00;0.47;;;;;;;;;;5047136;28;20407;-78
2021/10/13 11:17:37;;;;;;;1.65;0.63;;;;;;;;;;5029998;28;20037;-78
2021/10/13 11:20:08;;;;;;;1.63;0.70;;;;;;;;;;5042404;28;20025;-78
2021/10/13 11:22:34;;;;;;;2.00;0.85;;;;;;;;;;5049352;28;20020;-79
2021/10/13 11:24:59;;;;;;;4.90;0.90;;;;;;;;;;5048985;28;20390;-79
2021/10/13 11:27:25;;;;;;;4.85;1.38;;;;;;;;;;5049838;28;20036;-79
2021/10/13 11:29:50;;;;;;;1.80;0.50;;;;;;;;;;5048573;28;20446;-81
2021/10/13 11:32:16;;;;;;;1.00;0.40;;;;;;;;;;5049515;28;20033;-79
2021/10/13 11:35:00;;;;;;;6.85;0.57;;;;;;;;;;5048436;28;20045;-78
2021/10/13 11:37:27;;;;;;;0.73;0.40;;;;;;;;;;5049190;28;20025;-78
2021/10/13 11:39:52;;;;;;;1.67;0.50;;;;;;;;;;5048993;28;20074;-78
2021/10/13 11:42:18;;;;;;;0.85;0.40;;;;;;;;;;5048173;28;20025;-79
2021/10/13 11:44:47;;;;;;;1.48;0.68;;;;;;;;;;5038664;28;20074;-79
2021/10/13 11:47:12;;;;;;;2.63;0.77;;;;;;;;;;5041226;28;20083;-78
2021/10/13 11:49:52;;;;;;;1.38;0.73;;;;;;;;;;5039280;28;20053;-78
2021/10/13 11:52:18;;;;;;;1.38;0.82;;;;;;;;;;5029962;28;20041;-79
2021/10/13 11:54:43;;;;;;;0.90;0.68;;;;;;;;;;5029391;28;20379;-78
2021/10/13 11:57:08;;;;;;;3.05;0.80;;;;;;;;;;5030568;28;20028;-77
2021/10/13 11:59:34;;;;;;;1.30;0.60;;;;;;;;;;5025893;28;20042;-78
2021/10/13 12:02:17;;;;;;;1.80;0.63;;;;;;;;;;5028874;28;20112;-79
2021/10/13 12:04:49;;;;;;;1.42;0.50;;;;;;;;;;5029365;28;20116;-78
2021/10/13 12:07:15;;;;;;;1.90;0.60;;;;;;;;;;5029493;28;20042;-78
2021/10/13 12:09:45;;;;;;;0.63;0.32;;;;;;;;;;5029905;28;20029;-79
2021/10/13 12:12:13;;;;;;;1.38;0.60;;;;;;;;;;5040462;28;20888;-78
2021/10/13 12:14:38;;;;;;;2.75;0.50;;;;;;;;;;5052574;28;20033;-78
2021/10/13 12:17:03;;;;;;;1.75;0.50;;;;;;;;;;5053452;28;20036;-79
2021/10/13 12:19:40;;;;;;;1.42;0.50;;;;;;;;;;5053040;28;20027;-79
2021/10/13 12:22:06;;;;;;;2.35;1.10;;;;;;;;;;5052664;28;20108;-78
2021/10/13 12:24:33;;;;;;;2.40;0.85;;;;;;;;;;5052720;28;20124;-79
2021/10/13 12:26:58;;;;;;;3.35;0.70;;;;;;;;;;5049631;28;20079;-80
2021/10/13 12:29:23;;;;;;;1.52;0.60;;;;;;;;;;5038825;28;20025;-79
2021/10/13 12:31:49;;;;;;;1.40;0.47;;;;;;;;;;5048361;28;20029;-82
2021/10/13 12:34:16;;;;;;;2.03;0.60;;;;;;;;;;5050601;28;20402;-78
2021/10/13 12:36:41;;;;;;;0.70;0.20;;;;;;;;;;5036054;28;20076;-79
2021/10/13 12:39:11;;;;;;;2.92;1.05;;;;;;;;;;5032388;28;20462;-78
2021/10/13 12:41:43;;;;;;;1.08;0.55;;;;;;;;;;5033115;28;20030;-80
2021/10/13 12:44:20;;;;;;;0.30;0.30;;;;;;;;;;5031793;28;20029;-78
2021/10/13 12:46:53;;;;;;;3.28;0.50;;;;;;;;;;5032247;28;20129;-78
2021/10/13 12:49:18;;;;;;;0.57;0.50;;;;;;;;;;5032172;28;20030;-79
2021/10/13 12:51:53;;;;;;;1.50;0.40;;;;;;;;;;5032867;28;20099;-79
2021/10/13 12:54:18;;;;;;;2.00;0.30;;;;;;;;;;5033033;28;20389;-78
2021/10/13 12:56:44;;;;;;;1.45;0.55;;;;;;;;;;5032501;28;20309;-78
2021/10/13 12:59:09;;;;;;;3.55;0.40;;;;;;;;;;5032757;28;20028;-78
2021/10/13 13:01:34;;;;;;;1.42;0.30;;;;;;;;;;5032947;28;20022;-78
2021/10/13 13:04:00;;;;;;;1.52;0.70;;;;;;;;;;5032777;28;20034;-79
2021/10/13 13:06:25;;;;;;;0.60;0.35;;;;;;;;;;5032358;28;20136;-78
2021/10/13 13:08:51;;;;;;;2.28;0.75;;;;;;;;;;5032459;28;20073;-79
2021/10/13 13:11:16;;;;;;;1.10;0.45;;;;;;;;;;5033002;28;20086;-77
2021/10/13 13:13:41;;;;;;;1.67;0.63;;;;;;;;;;5032348;28;20021;-78
2021/10/13 13:16:06;;;;;;;0.80;0.40;;;;;;;;;;5051791;28;20079;-77
2021/10/13 13:18:32;;;;;;;2.50;0.65;;;;;;;;;;5052575;28;20044;-78
2021/10/13 13:20:57;;;;;;;1.45;0.85;;;;;;;;;;5047725;28;20021;-78
2021/10/13 13:23:23;;;;;;;2.38;0.43;;;;;;;;;;5034442;28;20070;-78
2021/10/13 13:25:48;;;;;;;1.80;0.60;;;;;;;;;;5034350;28;20385;-78
2021/10/13 13:28:13;;;;;;;0.38;0.38;;;;;;;;;;5032066;28;20033;-78
2021/10/13 13:30:39;;;;;;;0.60;0.35;;;;;;;;;;5032221;28;20025;-77
2021/10/13 13:33:04;;;;;;;2.15;0.80;;;;;;;;;;5032459;28;20437;-79
2021/10/13 13:35:29;;;;;;;1.35;0.60;;;;;;;;;;5040663;28;20049;-78
2021/10/13 13:37:55;;;;;;;1.73;0.70;;;;;;;;;;5052015;28;20420;-77
2021/10/13 13:40:20;;;;;;;3.92;1.63;;;;;;;;;;5051676;28;20462;-77
2021/10/13 13:42:46;;;;;;;1.70;1.00;;;;;;;;;;5050416;28;20389;-78
2021/10/13 13:45:12;;;;;;;9.43;3.28;;;;;;;;;;5051511;28;20454;-78
2021/10/13 13:47:38;;;;;;;14.90;6.38;;;;;;;;;;5051614;28;20048;-82
2021/10/13 13:50:04;;;;;;;1.70;1.02;;;;;;;;;;5052217;28;20025;-78
2021/10/13 13:52:29;;;;;;;40.90;16.70;;;;;;;;;;5048360;28;20025;-77
2021/10/13 13:54:54;;;;;;;30.60;13.60;;;;;;;;;;5050781;28;20037;-79
2021/10/13 13:57:19;;;;;;;12.68;6.03;;;;;;;;;;5051345;28;20489;-77
2021/10/13 13:59:45;;;;;;;12.75;7.03;;;;;;;;;;5050640;28;20457;-78
2021/10/13 14:02:10;;;;;;;7.55;4.15;;;;;;;;;;5051388;28;20025;-78
2021/10/13 14:04:36;;;;;;;4.75;2.20;;;;;;;;;;5051234;28;20029;-77
2021/10/13 14:07:01;;;;;;;6.25;2.63;;;;;;;;;;5050677;28;20033;-78
2021/10/13 14:09:26;;;;;;;5.32;2.22;;;;;;;;;;5051094;28;20037;-78
2021/10/13 14:11:52;;;;;;;3.35;1.50;;;;;;;;;;5050476;28;20074;-79
2021/10/13 14:14:17;;;;;;;3.38;1.33;;;;;;;;;;5051050;28;20108;-79
2021/10/13 14:16:42;;;;;;;2.13;1.17;;;;;;;;;;5050670;28;20394;-79
2021/10/13 14:19:08;;;;;;;3.15;1.45;;;;;;;;;;5050097;28;20071;-78
2021/10/13 14:21:33;;;;;;;4.82;1.85;;;;;;;;;;5050950;28;20024;-79
2021/10/13 14:23:58;;;;;;;5.25;1.98;;;;;;;;;;5050754;28;20036;-78
2021/10/13 14:26:23;;;;;;;3.05;1.40;;;;;;;;;;5050909;28;20118;-78
2021/10/13 14:28:49;;;;;;;1.48;1.08;;;;;;;;;;5050985;28;20025;-79
2021/10/13 14:31:14;;;;;;;4.15;1.10;;;;;;;;;;5049068;28;20041;-79
2021/10/13 14:33:39;;;;;;;2.10;1.17;;;;;;;;;;5050624;28;20024;-79
2021/10/13 14:36:06;;;;;;;1.52;0.98;;;;;;;;;;5049858;28;20068;-78